createdAt,value
2023-01-04T00:01:47.668Z,26.80
2023-01-04T00:04:15.627Z,27.40
2023-01-04T00:06:43.422Z,28.00
2023-01-04T00:09:11.373Z,30.00
2023-01-04T00:11:39.548Z,29.90
2023-01-04T00:14:07.312Z,29.50
2023-01-04T00:16:35.323Z,28.70
2023-01-04T00:19:03.742Z,29.70
2023-01-04T00:21:31.945Z,31.70
2023-01-04T00:24:01.032Z,32.20
2023-01-04T00:26:30.527Z,30.90
2023-01-04T00:28:59.980Z,28.20
2023-01-04T00:31:28.335Z,31.90
2023-01-04T00:33:57.660Z,32.00
2023-01-04T00:36:26.093Z,33.50
2023-01-04T00:39:08.357Z,35.50
2023-01-04T00:41:58.864Z,29.20
2023-01-04T00:44:29.137Z,28.50
2023-01-04T00:46:57.495Z,30.30
2023-01-04T00:49:25.869Z,27.60
2023-01-04T00:51:54.845Z,28.60
2023-01-04T00:54:22.740Z,30.00
2023-01-04T00:56:50.894Z,34.30
2023-01-04T00:59:19.886Z,29.60
2023-01-04T01:01:48.236Z,30.30
2023-01-04T01:04:18.325Z,29.20
2023-01-04T01:06:46.705Z,32.70
2023-01-04T01:09:15.116Z,31.10
2023-01-04T01:11:43.340Z,31.20
2023-01-04T01:14:15.786Z,33.10
2023-01-04T01:16:59.219Z,30.00
2023-01-04T01:19:28.650Z,27.90
2023-01-04T01:21:58.291Z,28.60
2023-01-04T01:24:27.006Z,27.40
2023-01-04T01:26:55.842Z,30.40
2023-01-04T01:29:24.178Z,32.30
2023-01-04T01:31:52.254Z,29.00
2023-01-04T01:34:20.715Z,30.20
2023-01-04T01:36:48.824Z,32.90
2023-01-04T01:39:17.072Z,26.60
2023-01-04T01:41:45.040Z,29.80
2023-01-04T01:44:13.008Z,29.40
2023-01-04T01:46:43.554Z,31.00
2023-01-04T01:49:34.671Z,29.00
2023-01-04T01:52:04.064Z,36.20
2023-01-04T01:54:36.290Z,36.10
2023-01-04T01:57:05.688Z,37.30
2023-01-04T01:59:36.252Z,38.80
2023-01-04T02:02:04.206Z,37.90
2023-01-04T02:04:32.498Z,39.20
2023-01-04T02:07:01.395Z,39.10
2023-01-04T02:09:30.688Z,42.90
2023-01-04T02:11:58.791Z,40.10
2023-01-04T02:14:30.150Z,36.80
2023-01-04T02:17:04.328Z,40.40
2023-01-04T02:19:38.403Z,41.80
2023-01-04T02:22:25.248Z,39.60
2023-01-04T02:27:20.923Z,37.80
2023-01-04T02:29:58.528Z,38.20
2023-01-04T02:32:33.413Z,41.80
2023-01-04T02:35:16.278Z,38.80
2023-01-04T02:38:04.051Z,36.30
2023-01-04T02:40:42.052Z,38.20
2023-01-04T02:43:37.461Z,35.70
2023-01-04T02:46:08.633Z,37.90
2023-01-04T02:48:59.096Z,35.10
2023-01-04T02:51:34.258Z,27.70
2023-01-04T02:54:05.067Z,31.10
2023-01-04T02:56:52.938Z,27.00
2023-01-04T02:59:30.277Z,35.10
2023-01-04T03:05:09.799Z,30.50
2023-01-04T03:07:47.238Z,30.30
2023-01-04T03:12:50.869Z,31.00
2023-01-04T03:15:31.392Z,30.30
2023-01-04T03:18:02.405Z,35.40
2023-01-04T03:20:31.051Z,36.50
2023-01-04T03:23:21.009Z,34.90
2023-01-04T03:26:26.985Z,34.00
2023-01-04T03:29:16.861Z,31.10
2023-01-04T03:32:25.420Z,33.30
2023-01-04T03:35:12.710Z,34.90
2023-01-04T03:37:48.648Z,36.00
2023-01-04T03:40:39.157Z,31.80
2023-01-04T03:43:37.733Z,32.60
2023-01-04T03:46:24.653Z,32.90
2023-01-04T03:48:57.770Z,31.70
2023-01-04T03:51:28.262Z,33.30
2023-01-04T03:53:59.375Z,29.60
2023-01-04T03:56:28.720Z,30.80
2023-01-04T03:58:57.192Z,30.90
2023-01-04T04:01:26.440Z,32.00
2023-01-04T04:04:14.317Z,31.20
2023-01-04T04:07:02.175Z,29.30
2023-01-04T04:09:30.149Z,31.40
2023-01-04T04:11:58.172Z,26.30
2023-01-04T04:14:26.286Z,28.60
2023-01-04T04:16:54.443Z,27.70
2023-01-04T04:19:22.443Z,26.60
2023-01-04T04:21:50.211Z,32.90
2023-01-04T04:24:19.783Z,26.50
2023-01-04T04:26:47.872Z,28.10
2023-01-04T04:29:15.694Z,27.60
2023-01-04T04:31:44.020Z,29.80
2023-01-04T04:34:12.376Z,25.90
2023-01-04T04:36:40.280Z,26.00
2023-01-04T04:39:08.174Z,27.00
2023-01-04T04:41:38.913Z,26.50
2023-01-04T04:44:15.010Z,31.20
2023-01-04T04:46:43.396Z,27.60
2023-01-04T04:49:11.377Z,28.40
2023-01-04T04:51:40.030Z,28.40
2023-01-04T04:54:09.435Z,24.60
2023-01-04T04:56:37.372Z,30.10
2023-01-04T04:59:05.841Z,36.20
2023-01-04T05:01:33.748Z,28.20
2023-01-04T05:04:02.173Z,53.00
2023-01-04T05:06:30.802Z,51.50
2023-01-04T05:08:58.756Z,38.70
2023-01-04T05:11:45.507Z,51.00
2023-01-04T05:14:13.738Z,38.40
2023-01-04T05:16:41.801Z,28.20
2023-01-04T05:19:10.031Z,29.60
2023-01-04T05:21:37.856Z,27.50
2023-01-04T05:24:05.870Z,25.10
2023-01-04T05:26:33.808Z,25.90
2023-01-04T05:29:01.859Z,25.00
2023-01-04T05:31:29.882Z,28.90
2023-01-04T05:33:57.846Z,26.80
2023-01-04T05:36:26.186Z,24.30
2023-01-04T05:38:54.259Z,27.60
2023-01-04T05:41:41.086Z,24.90
2023-01-04T05:44:09.464Z,27.50
2023-01-04T05:46:37.432Z,30.00
2023-01-04T05:49:05.389Z,28.20
2023-01-04T05:51:33.249Z,31.60
2023-01-04T05:54:01.014Z,27.90
2023-01-04T05:56:29.040Z,31.40
2023-01-04T05:58:57.207Z,47.50
2023-01-04T06:01:25.269Z,53.40
2023-01-04T06:03:53.353Z,33.90
2023-01-04T06:06:21.364Z,29.80
2023-01-04T06:08:49.437Z,30.10
2023-01-04T06:11:21.332Z,28.70
2023-01-04T06:13:51.929Z,29.50
2023-01-04T06:16:19.717Z,30.70
2023-01-04T06:18:47.586Z,36.50
2023-01-04T06:21:15.841Z,27.40
2023-01-04T06:23:43.848Z,29.40
2023-01-04T06:26:11.672Z,30.60
2023-01-04T06:28:41.204Z,31.90
2023-01-04T06:31:10.626Z,30.40
2023-01-04T06:33:38.949Z,22.70
2023-01-04T06:36:07.613Z,22.40
2023-01-04T06:38:48.196Z,22.10
2023-01-04T06:41:16.075Z,22.70
2023-01-04T06:43:44.120Z,22.50
2023-01-04T06:46:12.441Z,21.80
2023-01-04T06:48:40.687Z,22.30
2023-01-04T06:51:08.656Z,19.80
2023-01-04T06:53:36.934Z,19.00
2023-01-04T06:56:05.107Z,21.60
2023-01-04T06:58:32.999Z,23.20
2023-01-04T07:01:01.004Z,21.70
2023-01-04T07:03:29.000Z,24.90
2023-01-04T07:05:56.792Z,21.90
2023-01-04T07:08:25.355Z,22.40
2023-01-04T07:10:53.130Z,19.90
2023-01-04T07:13:20.978Z,21.60
2023-01-04T07:15:48.899Z,21.10
2023-01-04T07:18:16.816Z,19.00
2023-01-04T07:20:45.361Z,23.60
2023-01-04T07:23:13.676Z,21.80
2023-01-04T07:25:41.640Z,21.70
2023-01-04T07:28:09.611Z,19.50
2023-01-04T07:30:37.579Z,20.00
2023-01-04T07:33:05.816Z,21.50
2023-01-04T07:35:33.755Z,19.00
2023-01-04T07:38:02.843Z,22.10
2023-01-04T07:40:30.636Z,21.40
2023-01-04T07:42:59.089Z,18.80
2023-01-04T07:45:27.726Z,19.00
2023-01-04T07:47:55.840Z,19.30
2023-01-04T07:50:23.794Z,21.80
2023-01-04T07:52:51.929Z,19.70
2023-01-04T07:55:19.864Z,21.40
2023-01-04T07:57:47.792Z,20.10
2023-01-04T08:00:16.268Z,22.50
2023-01-04T08:02:44.263Z,20.90
2023-01-04T08:05:12.500Z,22.70
2023-01-04T08:07:40.502Z,19.00
2023-01-04T08:10:08.353Z,21.20
2023-01-04T08:12:36.420Z,21.00
2023-01-04T08:15:04.589Z,20.40
2023-01-04T08:17:33.010Z,23.10
2023-01-04T08:20:01.761Z,20.80
2023-01-04T08:22:29.732Z,20.60
2023-01-04T08:24:57.605Z,24.30
2023-01-04T08:27:25.559Z,25.20
2023-01-04T08:29:53.628Z,23.90
2023-01-04T08:32:22.694Z,25.00
2023-01-04T08:34:50.736Z,26.20
2023-01-04T08:37:18.760Z,24.80
2023-01-04T08:39:49.198Z,28.70
2023-01-04T08:42:25.126Z,26.40
2023-01-04T08:45:01.048Z,25.10
2023-01-04T08:47:30.634Z,22.50
2023-01-04T08:49:59.452Z,25.50
2023-01-04T08:52:28.961Z,21.90
2023-01-04T08:54:56.867Z,21.40
2023-01-04T08:57:24.728Z,21.90
2023-01-04T08:59:52.694Z,24.80
2023-01-04T09:02:23.391Z,22.10
2023-01-04T09:04:52.336Z,23.20
2023-01-04T09:07:20.528Z,22.30
2023-01-04T09:09:48.467Z,19.70
2023-01-04T09:12:16.537Z,22.40
2023-01-04T09:14:44.791Z,20.00
2023-01-04T09:17:12.693Z,19.30
2023-01-04T09:19:40.638Z,20.80
2023-01-04T09:22:08.885Z,19.70
2023-01-04T09:24:36.656Z,24.10
2023-01-04T09:27:04.848Z,23.50
2023-01-04T09:29:32.720Z,22.70
2023-01-04T09:32:01.321Z,19.10
2023-01-04T09:34:29.508Z,19.00
2023-01-04T09:36:58.370Z,16.80
2023-01-04T09:39:30.329Z,25.20
2023-01-04T09:41:59.650Z,18.80
2023-01-04T09:45:12.210Z,16.90
2023-01-04T09:47:22.273Z,15.80
2023-01-04T09:49:53.123Z,15.70
2023-01-04T09:52:25.842Z,16.80
2023-01-04T09:54:58.982Z,17.80
2023-01-04T09:57:32.522Z,14.30
2023-01-04T10:00:03.636Z,16.40
2023-01-04T10:02:44.629Z,18.90
2023-01-04T10:05:18.776Z,16.10
2023-01-04T10:07:46.722Z,17.70
2023-01-04T10:10:15.851Z,19.30
2023-01-04T10:12:43.644Z,17.80
2023-01-04T10:15:16.644Z,15.20
2023-01-04T10:18:51.987Z,15.10
2023-01-04T10:23:26.970Z,15.10
2023-01-04T10:25:56.955Z,12.40
2023-01-04T10:28:27.708Z,15.70
2023-01-04T10:31:39.361Z,13.10
2023-01-04T10:34:05.388Z,14.00
2023-01-04T10:36:33.201Z,9.80
2023-01-04T10:39:05.652Z,10.10
2023-01-04T10:41:37.077Z,9.70
2023-01-04T10:44:11.095Z,10.70
2023-01-04T10:47:01.744Z,10.60
2023-01-04T10:49:38.059Z,10.10
2023-01-04T10:52:13.291Z,9.60
2023-01-04T10:54:44.820Z,9.60
2023-01-04T10:57:15.316Z,8.10
2023-01-04T10:59:43.433Z,21.30
2023-01-04T11:02:17.832Z,15.00
2023-01-04T11:04:48.767Z,13.50
2023-01-04T11:07:19.293Z,15.90
2023-01-04T11:09:47.425Z,11.10
2023-01-04T11:12:15.978Z,10.30
2023-01-04T11:14:44.271Z,17.30
2023-01-04T11:17:12.637Z,13.10
2023-01-04T11:19:41.337Z,12.40
2023-01-04T11:22:09.210Z,8.10
2023-01-04T11:24:38.960Z,8.10
2023-01-04T11:27:10.949Z,7.70
2023-01-04T11:29:38.841Z,8.90
2023-01-04T11:32:19.079Z,8.50
2023-01-04T11:34:48.939Z,11.50
2023-01-04T11:37:26.585Z,18.60
2023-01-04T11:40:11.772Z,9.80
2023-01-04T11:42:39.726Z,7.90
2023-01-04T11:45:21.209Z,8.90
2023-01-04T11:47:50.324Z,9.20
2023-01-04T11:50:47.665Z,8.30
2023-01-04T11:53:36.263Z,8.80
2023-01-04T11:56:13.652Z,10.50
2023-01-04T11:58:42.085Z,8.30
2023-01-04T12:01:23.807Z,7.80
2023-01-04T12:03:52.161Z,8.50
2023-01-04T12:06:28.359Z,8.20
2023-01-04T12:08:56.506Z,8.10
2023-01-04T12:11:28.754Z,6.60
2023-01-04T12:13:59.795Z,9.10
2023-01-04T12:16:46.871Z,7.70
2023-01-04T12:19:16.817Z,7.20
2023-01-04T12:21:47.415Z,8.10
2023-01-04T12:24:17.873Z,7.30
2023-01-04T12:26:45.954Z,20.70
2023-01-04T12:29:22.639Z,13.20
2023-01-04T12:31:52.044Z,11.30
2023-01-04T12:34:23.308Z,10.80
2023-01-04T12:36:51.140Z,14.00
2023-01-04T12:39:29.147Z,9.90
2023-01-04T12:42:04.655Z,8.70
2023-01-04T12:44:38.920Z,10.30
2023-01-04T12:47:34.890Z,8.10
2023-01-04T12:50:07.702Z,7.60
2023-01-04T12:53:01.818Z,9.50
2023-01-04T12:55:39.146Z,9.40
2023-01-04T12:58:49.629Z,7.60
2023-01-04T13:01:24.774Z,10.00
2023-01-04T13:04:00.811Z,7.60
2023-01-04T13:06:34.269Z,8.30
2023-01-04T13:09:05.584Z,8.40
2023-01-04T13:11:48.017Z,8.90
2023-01-04T13:14:38.985Z,8.60
2023-01-04T13:17:23.814Z,9.70
2023-01-04T13:19:51.938Z,8.10
2023-01-04T13:22:29.718Z,12.40
2023-01-04T13:24:58.913Z,9.50
2023-01-04T13:27:27.576Z,11.00
2023-01-04T13:29:55.900Z,9.80
2023-01-04T13:32:25.076Z,12.70
2023-01-04T13:35:00.214Z,34.20
2023-01-04T13:37:38.499Z,21.50
2023-01-04T13:40:26.593Z,14.20
2023-01-04T13:42:57.416Z,9.70
2023-01-04T13:45:44.528Z,9.20
2023-01-04T13:48:14.119Z,10.40
2023-01-04T13:50:49.770Z,9.00
2023-01-04T13:53:20.146Z,9.80
2023-01-04T13:55:55.254Z,11.70
2023-01-04T13:58:28.018Z,10.90
2023-01-04T14:01:05.925Z,9.90
2023-01-04T14:03:41.340Z,8.90
2023-01-04T14:06:09.627Z,11.00
2023-01-04T14:08:40.495Z,11.30
2023-01-04T14:11:15.457Z,15.30
2023-01-04T14:13:48.005Z,14.70
2023-01-04T14:16:16.352Z,10.80
2023-01-04T14:18:44.728Z,11.90
2023-01-04T14:21:17.279Z,11.60
2023-01-04T14:23:45.562Z,9.10
2023-01-04T14:26:29.916Z,9.40
2023-01-04T14:28:58.662Z,10.40
2023-01-04T14:31:28.541Z,11.80
2023-01-04T14:33:58.238Z,9.10
2023-01-04T14:36:28.349Z,8.90
2023-01-04T14:39:09.599Z,20.80
2023-01-04T14:42:05.355Z,11.30
2023-01-04T14:44:36.031Z,8.70
2023-01-04T14:47:06.520Z,8.00
2023-01-04T14:49:35.001Z,9.30
2023-01-04T14:52:04.296Z,7.50
2023-01-04T14:54:35.275Z,8.40
2023-01-04T14:57:03.170Z,10.30
2023-01-04T14:59:31.351Z,10.30
2023-01-04T15:02:00.017Z,9.00
2023-01-04T15:04:28.642Z,10.20
2023-01-04T15:07:00.598Z,10.70
2023-01-04T15:09:29.426Z,8.70
2023-01-04T15:11:57.776Z,10.40
2023-01-04T15:14:27.914Z,8.30
2023-01-04T15:16:55.959Z,9.90
2023-01-04T15:19:24.727Z,9.60
2023-01-04T15:21:56.705Z,8.90
2023-01-04T15:24:25.183Z,7.90
2023-01-04T15:26:53.148Z,8.50
2023-01-04T15:29:21.536Z,7.60
2023-01-04T15:31:49.763Z,12.00
2023-01-04T15:34:18.731Z,10.00
2023-01-04T15:36:50.984Z,9.00
2023-01-04T15:39:19.144Z,7.70
2023-01-04T15:42:06.567Z,10.10
2023-01-04T15:47:03.468Z,14.70
2023-01-04T15:49:32.319Z,9.60
2023-01-04T15:52:00.792Z,11.10
2023-01-04T15:54:30.192Z,13.90
2023-01-04T15:56:58.370Z,13.30
2023-01-04T15:59:26.945Z,14.50
2023-01-04T16:01:55.643Z,12.80
2023-01-04T16:04:24.537Z,14.00
2023-01-04T16:06:52.796Z,12.20
2023-01-04T16:09:21.126Z,29.30
2023-01-04T16:12:08.392Z,14.70
2023-01-04T16:17:04.328Z,10.90
2023-01-04T16:19:34.657Z,9.40
2023-01-04T16:22:02.782Z,9.70
2023-01-04T16:25:09.411Z,10.40
2023-01-04T16:27:23.264Z,10.00
2023-01-04T16:29:52.637Z,10.50
2023-01-04T16:32:21.225Z,10.70
2023-01-04T16:34:51.533Z,11.00
2023-01-04T16:37:21.665Z,10.70
2023-01-04T16:40:08.519Z,20.80
2023-01-04T16:42:38.772Z,17.10
2023-01-04T16:45:07.914Z,14.80
2023-01-04T16:47:42.010Z,13.40
2023-01-04T16:50:13.174Z,14.10
2023-01-04T16:52:44.799Z,13.00
2023-01-04T16:55:23.431Z,11.80
2023-01-04T16:57:57.568Z,11.00
2023-01-04T17:00:28.592Z,11.60
2023-01-04T17:03:03.444Z,11.90
2023-01-04T17:05:32.625Z,9.60
2023-01-04T17:08:02.336Z,12.20
2023-01-04T17:10:31.103Z,10.30
2023-01-04T17:12:59.783Z,12.30
2023-01-04T17:15:44.293Z,11.20
2023-01-04T17:18:15.450Z,11.90
2023-01-04T17:20:43.368Z,12.00
2023-01-04T17:23:12.046Z,13.40
2023-01-04T17:25:40.831Z,12.40
2023-01-04T17:28:08.991Z,13.20
2023-01-04T17:30:40.505Z,12.00
2023-01-04T17:33:10.193Z,12.90
2023-01-04T17:35:39.781Z,14.20
2023-01-04T17:38:08.456Z,11.40
2023-01-04T17:40:37.357Z,15.70
2023-01-04T17:43:07.080Z,16.40
2023-01-04T17:45:36.292Z,14.30
2023-01-04T17:48:05.340Z,13.60
2023-01-04T17:50:34.333Z,15.00
2023-01-04T17:53:04.075Z,16.40
2023-01-04T17:55:34.368Z,15.40
2023-01-04T17:58:06.145Z,15.80
2023-01-04T18:03:08.704Z,26.30
2023-01-04T18:05:51.316Z,22.30
2023-01-04T18:08:23.408Z,18.80
2023-01-04T18:11:09.013Z,18.60
2023-01-04T18:16:24.290Z,16.80
2023-01-04T18:18:56.342Z,20.30
2023-01-04T18:21:30.816Z,18.90
2023-01-04T18:27:21.113Z,16.60
2023-01-04T18:29:44.394Z,12.50
2023-01-04T18:32:13.152Z,10.90
2023-01-04T18:34:41.363Z,8.60
2023-01-04T18:37:11.148Z,6.70
2023-01-04T18:39:39.157Z,7.70
2023-01-04T18:42:08.486Z,6.70
2023-01-04T18:44:45.633Z,7.20
2023-01-04T18:47:20.620Z,7.20
2023-01-04T18:49:51.554Z,5.80
2023-01-04T18:52:21.010Z,6.60
2023-01-04T18:54:49.398Z,7.70
2023-01-04T18:57:17.980Z,7.10
2023-01-04T18:59:51.229Z,6.20
2023-01-04T19:02:20.456Z,5.90
2023-01-04T19:04:50.565Z,7.20
2023-01-04T19:07:18.887Z,9.60
2023-01-04T19:09:47.021Z,7.50
2023-01-04T19:12:17.564Z,5.50
2023-01-04T19:14:47.458Z,6.60
2023-01-04T19:17:15.847Z,5.50
2023-01-04T19:19:46.260Z,5.10
2023-01-04T19:22:15.653Z,5.70
2023-01-04T19:24:43.664Z,5.80
2023-01-04T19:27:12.935Z,5.20
2023-01-04T19:29:41.013Z,6.10
2023-01-04T19:32:10.314Z,4.40
2023-01-04T19:34:38.991Z,5.40
2023-01-04T19:37:08.448Z,3.90
2023-01-04T19:39:39.072Z,4.20
2023-01-04T19:42:07.597Z,4.60
2023-01-04T19:44:36.195Z,4.20
2023-01-04T19:47:06.452Z,3.70
2023-01-04T19:49:35.495Z,6.00
2023-01-04T19:52:03.466Z,4.80
2023-01-04T19:54:32.062Z,2.60
2023-01-04T19:57:00.228Z,3.40
2023-01-04T19:59:28.554Z,4.80
2023-01-04T20:01:56.874Z,3.60
2023-01-04T20:04:29.486Z,5.50
2023-01-04T20:06:58.352Z,4.10
2023-01-04T20:09:27.921Z,2.90
2023-01-04T20:11:56.840Z,3.50
2023-01-04T20:14:25.325Z,5.80
2023-01-04T20:16:53.465Z,3.40
2023-01-04T20:19:21.482Z,3.60
2023-01-04T20:21:49.425Z,4.20
2023-01-04T20:24:18.115Z,4.60
2023-01-04T20:26:48.636Z,5.10
2023-01-04T20:29:17.221Z,3.70
2023-01-04T20:31:46.042Z,3.20
2023-01-04T20:34:14.591Z,4.60
2023-01-04T20:36:42.871Z,5.90
2023-01-04T20:39:11.886Z,4.00
2023-01-04T20:41:59.879Z,3.00
2023-01-04T20:44:27.975Z,4.80
2023-01-04T20:46:56.245Z,4.10
2023-01-04T20:49:24.622Z,3.30
2023-01-04T20:51:52.914Z,3.60
2023-01-04T20:54:22.054Z,2.50
2023-01-04T20:56:50.698Z,2.10
2023-01-04T20:59:19.272Z,3.20
2023-01-04T21:01:47.778Z,3.50
2023-01-04T21:04:17.945Z,2.70
2023-01-04T21:06:46.972Z,3.20
2023-01-04T21:09:16.583Z,2.30
2023-01-04T21:11:44.856Z,2.00
2023-01-04T21:14:14.358Z,3.10
2023-01-04T21:16:43.669Z,2.60
2023-01-04T21:19:13.999Z,4.00
2023-01-04T21:21:42.961Z,3.20
2023-01-04T21:24:12.155Z,3.00
2023-01-04T21:26:40.259Z,4.60
2023-01-04T21:29:08.503Z,3.70
2023-01-04T21:31:37.131Z,5.10
2023-01-04T21:34:10.828Z,4.50
2023-01-04T21:36:41.922Z,3.50
2023-01-04T21:39:10.206Z,2.60
2023-01-04T21:41:45.908Z,4.30
2023-01-04T21:44:18.063Z,2.70
2023-01-04T21:46:46.773Z,3.00
2023-01-04T21:49:15.096Z,2.70
2023-01-04T21:51:43.778Z,3.80
2023-01-04T21:54:12.237Z,2.70
2023-01-04T21:56:40.211Z,2.10
2023-01-04T21:59:08.181Z,2.50
2023-01-04T22:01:36.484Z,2.10
2023-01-04T22:04:04.665Z,2.00
2023-01-04T22:06:34.384Z,2.70
2023-01-04T22:09:02.736Z,3.30
2023-01-04T22:11:30.886Z,1.70
2023-01-04T22:13:59.153Z,2.70
2023-01-04T22:16:27.234Z,1.70
2023-01-04T22:18:55.665Z,2.40
2023-01-04T22:21:24.731Z,3.10
2023-01-04T22:23:54.032Z,3.20
2023-01-04T22:26:22.091Z,2.60
2023-01-04T22:28:50.250Z,3.80
2023-01-04T22:31:18.466Z,3.00
2023-01-04T22:33:46.522Z,4.30
2023-01-04T22:36:22.369Z,3.10
2023-01-04T22:38:55.945Z,2.90
2023-01-04T22:41:25.790Z,2.20
2023-01-04T22:44:04.373Z,2.60
2023-01-04T22:46:34.114Z,5.40
2023-01-04T22:49:02.464Z,3.40
2023-01-04T22:51:31.247Z,3.30
2023-01-04T22:54:01.386Z,3.30
2023-01-04T22:56:29.904Z,2.80
2023-01-04T22:58:58.529Z,3.90
2023-01-04T23:01:27.914Z,3.00
2023-01-04T23:03:57.434Z,2.30
2023-01-04T23:06:26.716Z,4.20
2023-01-04T23:09:00.653Z,4.30
2023-01-04T23:11:30.147Z,5.10
2023-01-04T23:14:00.233Z,2.40
2023-01-04T23:16:32.759Z,4.10
2023-01-04T23:19:01.789Z,2.50
2023-01-04T23:21:30.942Z,3.50
2023-01-04T23:24:00.789Z,4.10
2023-01-04T23:26:29.840Z,2.00
2023-01-04T23:28:58.019Z,2.70
2023-01-04T23:31:27.192Z,2.60
2023-01-04T23:33:56.557Z,2.90
2023-01-04T23:36:25.906Z,4.10
2023-01-04T23:38:55.110Z,2.70
2023-01-04T23:41:43.558Z,3.60
2023-01-04T23:44:19.387Z,2.40
2023-01-04T23:46:51.345Z,1.80
2023-01-04T23:49:19.228Z,2.30
2023-01-04T23:51:48.017Z,3.30
2023-01-04T23:54:15.957Z,1.80
2023-01-04T23:56:44.055Z,2.00
2023-01-04T23:59:12.396Z,2.30
